Time;durP1;ratioP1;P1;durP2;ratioP2;P2;SDS_P1;SDS_P2;PMS_P1;PMS_P2;Temp;Humidity;BMP_temperature;BMP_pressure;BME280_temperature;BME280_humidity;BME280_pressure;Samples;Min_cycle;Max_cycle;Signal;HPM_P1;HPM_P2
2022/06/21 04:02:06;;;;;;;10.20;6.93;;;11.80;99.90;;;;;;5242485;23;20238;-70
2022/06/21 04:04:40;;;;;;;9.52;6.70;;;11.90;99.90;;;;;;4975329;28;20630;-68
2022/06/21 04:07:17;;;;;;;13.77;6.13;;;11.90;99.90;;;;;;4976150;28;20229;-70
2022/06/21 04:09:49;;;;;;;9.40;7.05;;;12.00;99.90;;;;;;4972140;28;20220;-70
2022/06/21 04:12:22;;;;;;;10.30;7.07;;;12.00;99.90;;;;;;4971027;28;20232;-70
2022/06/21 04:14:53;;;;;;;11.27;6.30;;;12.10;99.90;;;;;;4974804;28;20212;-68
2022/06/21 04:17:26;;;;;;;11.70;6.75;;;12.10;99.90;;;;;;4973665;28;20227;-68
2022/06/21 04:19:58;;;;;;;7.63;6.63;;;12.30;99.90;;;;;;4973687;28;20208;-68
2022/06/21 04:22:32;;;;;;;11.45;6.45;;;12.30;99.90;;;;;;4973848;28;20409;-68
2022/06/21 04:25:08;;;;;;;5.75;5.20;;;12.80;99.90;;;;;;4973792;28;20204;-68
2022/06/21 04:27:42;;;;;;;6.83;4.20;;;13.60;99.90;;;;;;4973349;28;20223;-69
2022/06/21 04:30:17;;;;;;;8.77;3.60;;;14.50;99.90;;;;;;4973585;28;20553;-68
2022/06/21 04:32:49;;;;;;;4.57;2.83;;;15.30;99.90;;;;;;4973522;28;20513;-68
2022/06/21 04:35:20;;;;;;;4.57;3.30;;;15.90;99.90;;;;;;4973407;28;20463;-68
2022/06/21 04:37:50;;;;;;;4.90;3.10;;;16.40;99.90;;;;;;4973335;28;21026;-68
2022/06/21 04:40:24;;;;;;;5.73;2.50;;;17.00;99.90;;;;;;4973072;28;20929;-68
2022/06/21 04:42:57;;;;;;;5.27;2.83;;;17.90;99.90;;;;;;4973042;28;20475;-67
2022/06/21 04:45:30;;;;;;;3.13;2.80;;;18.20;99.90;;;;;;4973370;28;20555;-67
2022/06/21 04:48:11;;;;;;;4.00;2.43;;;18.60;99.90;;;;;;4970874;28;20464;-68
2022/06/21 04:50:43;;;;;;;5.10;2.43;;;19.00;99.90;;;;;;4969664;28;20492;-68
2022/06/21 04:53:16;;;;;;;4.27;2.00;;;19.40;99.90;;;;;;4973111;28;20854;-69
2022/06/21 04:55:52;;;;;;;3.20;2.27;;;19.80;99.90;;;;;;4972497;28;20884;-68
2022/06/21 04:58:18;;;;;;;2.97;1.83;;;19.90;99.90;;;;;;4972550;28;20483;-69
2022/06/21 05:00:45;;;;;;;6.63;2.57;;;20.20;99.90;;;;;;4967619;28;20502;-69
2022/06/21 05:03:26;;;;;;;4.57;2.20;;;20.50;99.90;;;;;;4969150;28;20475;-69
2022/06/21 05:05:53;;;;;;;2.70;2.50;;;20.50;99.90;;;;;;4964886;28;20468;-69
2022/06/21 05:08:24;;;;;;;2.93;2.10;;;20.50;99.90;;;;;;4974180;28;20452;-69
2022/06/21 05:10:55;;;;;;;2.33;1.63;;;20.80;99.90;;;;;;4972683;28;20484;-68
2022/06/21 05:13:25;;;;;;;2.50;2.13;;;20.90;99.90;;;;;;4972488;28;20502;-69
2022/06/21 05:15:53;;;;;;;5.50;2.10;;;21.30;99.90;;;;;;4973183;28;20463;-69
2022/06/21 05:18:25;;;;;;;2.67;2.50;;;21.40;99.90;;;;;;4971358;28;20631;-69
2022/06/21 05:20:55;;;;;;;2.30;1.70;;;21.50;99.90;;;;;;4972499;28;20505;-69
2022/06/21 05:23:23;;;;;;;6.50;2.50;;;21.80;99.90;;;;;;4972862;28;20474;-69
2022/06/21 05:25:51;;;;;;;3.17;2.20;;;22.00;99.90;;;;;;4972233;28;20988;-69
2022/06/21 05:28:26;;;;;;;2.93;1.87;;;22.10;99.90;;;;;;4973356;28;20468;-69
2022/06/21 05:30:55;;;;;;;2.20;1.80;;;22.10;99.90;;;;;;4969016;28;20488;-68
2022/06/21 05:33:29;;;;;;;2.90;2.53;;;22.30;99.90;;;;;;4966901;28;20623;-68
2022/06/21 05:35:55;;;;;;;2.67;2.00;;;22.40;99.90;;;;;;4971576;28;20480;-68
2022/06/21 05:38:25;;;;;;;4.77;2.13;;;22.60;99.90;;;;;;4972644;28;20481;-69
2022/06/21 05:40:56;;;;;;;2.73;2.20;;;22.60;99.90;;;;;;4972543;28;20487;-68
2022/06/21 05:43:29;;;;;;;4.47;1.77;;;22.50;99.90;;;;;;4972285;28;20473;-68
2022/06/21 05:46:00;;;;;;;5.17;2.80;;;22.30;99.90;;;;;;4972362;28;20469;-68
2022/06/21 05:48:30;;;;;;;2.73;2.00;;;22.00;99.90;;;;;;4972042;28;20469;-67
2022/06/21 05:51:00;;;;;;;3.67;2.03;;;22.10;99.90;;;;;;4970612;28;20495;-67
2022/06/21 05:53:31;;;;;;;3.77;1.60;;;22.40;99.90;;;;;;4972406;28;20509;-67
2022/06/21 05:56:01;;;;;;;4.40;2.70;;;22.90;99.90;;;;;;4972302;28;20833;-67
2022/06/21 05:58:31;;;;;;;5.93;2.50;;;22.80;99.90;;;;;;4971954;28;20510;-67
2022/06/21 06:01:04;;;;;;;4.97;2.10;;;23.00;99.90;;;;;;4968844;28;20499;-67
2022/06/21 06:03:38;;;;;;;3.67;1.83;;;22.80;99.90;;;;;;4971815;28;20466;-67
2022/06/21 06:06:06;;;;;;;4.03;1.73;;;22.80;99.90;;;;;;4970972;28;20492;-67
2022/06/21 06:08:37;;;;;;;3.30;1.73;;;22.90;99.90;;;;;;4971887;28;20455;-67
2022/06/21 06:11:10;;;;;;;3.03;2.37;;;23.20;99.90;;;;;;4969005;28;20497;-67
2022/06/21 06:13:41;;;;;;;3.40;2.00;;;23.50;99.90;;;;;;4971771;28;20472;-67
2022/06/21 06:16:16;;;;;;;4.30;1.80;;;23.80;99.90;;;;;;4971878;28;20581;-67
2022/06/21 06:18:50;;;;;;;3.10;1.70;;;24.00;99.90;;;;;;4971803;28;20562;-67
2022/06/21 06:21:21;;;;;;;3.33;1.93;;;24.20;99.90;;;;;;4971759;28;20513;-67
2022/06/21 06:23:54;;;;;;;5.23;1.93;;;24.20;99.90;;;;;;4971166;28;20467;-67
2022/06/21 06:26:24;;;;;;;2.47;2.13;;;24.00;99.90;;;;;;4971296;28;20462;-67
2022/06/21 06:28:56;;;;;;;3.63;1.70;;;24.30;99.90;;;;;;4971972;28;20465;-67
2022/06/21 06:31:27;;;;;;;5.23;2.50;;;24.50;99.90;;;;;;4971138;28;20486;-67
2022/06/21 06:34:00;;;;;;;2.00;1.90;;;24.70;99.90;;;;;;4952389;29;20464;-67
2022/06/21 06:36:32;;;;;;;2.90;2.43;;;25.00;99.90;;;;;;4954109;28;20483;-67
2022/06/21 06:39:00;;;;;;;2.37;2.00;;;25.10;99.90;;;;;;4970818;28;20494;-67
2022/06/21 06:41:31;;;;;;;3.23;2.00;;;25.20;99.90;;;;;;4970719;28;20851;-68
2022/06/21 06:44:02;;;;;;;2.60;1.70;;;25.20;99.90;;;;;;4971389;28;20979;-67
2022/06/21 06:46:32;;;;;;;1.87;1.67;;;25.40;99.90;;;;;;4971462;28;20470;-67
2022/06/21 06:49:08;;;;;;;4.80;3.10;;;25.50;99.90;;;;;;4971383;28;20461;-68
2022/06/21 06:51:50;;;;;;;2.20;2.03;;;25.90;99.90;;;;;;4971593;28;20490;-68
2022/06/21 06:54:28;;;;;;;3.07;1.90;;;25.60;99.90;;;;;;4970177;28;20478;-68
2022/06/21 06:57:05;;;;;;;2.83;1.77;;;25.60;99.90;;;;;;4964782;28;20469;-68
2022/06/21 06:59:32;;;;;;;3.70;1.87;;;25.50;99.90;;;;;;4970943;28;20480;-68
2022/06/21 07:02:02;;;;;;;2.33;2.03;;;25.20;99.90;;;;;;4970954;28;20898;-67
2022/06/21 07:04:35;;;;;;;3.07;2.00;;;25.50;99.90;;;;;;4969451;28;20476;-67
2022/06/21 07:07:07;;;;;;;2.10;1.67;;;25.70;99.90;;;;;;4971093;28;20473;-67
2022/06/21 07:09:39;;;;;;;3.20;1.70;;;25.80;99.90;;;;;;4971222;28;20467;-68
2022/06/21 07:12:13;;;;;;;3.43;1.53;;;25.80;99.90;;;;;;4969407;28;20491;-68
2022/06/21 07:14:39;;;;;;;3.07;1.90;;;26.00;99.90;;;;;;4971210;28;20470;-69
2022/06/21 07:17:14;;;;;;;2.33;1.50;;;26.00;99.90;;;;;;4970909;28;20467;-68
2022/06/21 07:19:42;;;;;;;3.53;1.87;;;26.00;99.90;;;;;;4974533;28;20588;-68
2022/06/21 07:22:14;;;;;;;3.33;2.23;;;26.20;99.90;;;;;;4971705;28;20508;-68
2022/06/21 07:24:44;;;;;;;4.00;2.53;;;26.10;99.30;;;;;;4970834;28;20466;-68
2022/06/21 07:27:16;;;;;;;1.60;1.50;;;26.00;99.50;;;;;;4988697;28;20471;-68
2022/06/21 07:29:52;;;;;;;2.83;1.60;;;26.20;99.10;;;;;;4987858;28;20476;-68
2022/06/21 07:32:22;;;;;;;2.17;1.97;;;26.20;98.50;;;;;;4970296;28;20481;-68
2022/06/21 07:34:56;;;;;;;2.10;1.60;;;26.30;98.70;;;;;;4974106;28;20496;-68
2022/06/21 07:37:28;;;;;;;2.10;1.90;;;26.70;97.60;;;;;;4973467;28;20497;-67
2022/06/21 07:40:00;;;;;;;2.63;1.60;;;26.70;97.00;;;;;;4975158;28;20490;-68
2022/06/21 07:42:32;;;;;;;2.13;1.90;;;26.30;98.20;;;;;;4972144;28;20829;-68
2022/06/21 07:45:03;;;;;;;2.03;1.53;;;26.30;98.00;;;;;;4968413;28;20467;-68
2022/06/21 07:47:37;;;;;;;2.03;1.80;;;26.50;97.70;;;;;;4972060;28;20474;-68
2022/06/21 07:50:10;;;;;;;3.50;1.63;;;26.60;97.00;;;;;;4973175;28;20462;-68
2022/06/21 07:52:41;;;;;;;1.50;1.40;;;26.70;97.30;;;;;;4973994;28;20478;-68
2022/06/21 07:55:14;;;;;;;2.63;1.60;;;26.80;97.10;;;;;;4974257;28;20470;-67
2022/06/21 07:57:47;;;;;;;2.07;1.87;;;26.20;96.10;;;;;;4972873;28;20819;-67
2022/06/21 08:00:17;;;;;;;4.37;1.57;;;26.30;96.50;;;;;;4974299;28;20490;-67
2022/06/21 08:08:30;;;;;;;1.70;1.60;;;25.00;98.80;;;;;;4972466;28;20477;-68
2022/06/21 08:11:01;;;;;;;3.03;2.67;;;25.20;97.70;;;;;;4974082;28;20490;-68
2022/06/21 08:13:30;;;;;;;5.87;1.97;;;25.50;97.90;;;;;;4971444;28;20473;-68
2022/06/21 08:16:05;;;;;;;2.60;1.57;;;25.70;97.90;;;;;;4974384;28;20481;-69
2022/06/21 08:18:38;;;;;;;1.83;1.60;;;25.80;97.70;;;;;;4973661;28;20465;-67
2022/06/21 08:21:10;;;;;;;2.67;1.83;;;26.20;97.30;;;;;;4969325;28;20516;-68
2022/06/21 08:23:41;;;;;;;1.90;1.67;;;26.10;96.70;;;;;;4974185;28;20473;-67
2022/06/21 08:26:14;;;;;;;2.80;1.53;;;26.00;96.70;;;;;;4972994;28;20473;-68
2022/06/21 08:28:46;;;;;;;1.87;1.50;;;26.00;97.40;;;;;;4973174;28;20867;-68
2022/06/21 08:31:19;;;;;;;5.10;1.80;;;26.20;97.70;;;;;;4973298;28;20498;-67
2022/06/21 08:33:52;;;;;;;1.73;1.67;;;26.10;96.10;;;;;;4971433;28;20477;-68
2022/06/21 08:36:24;;;;;;;2.20;1.50;;;25.90;96.30;;;;;;4973780;28;20464;-69
2022/06/21 08:38:58;;;;;;;3.30;1.53;;;25.70;97.00;;;;;;4973535;28;20856;-68
2022/06/21 08:41:55;;;;;;;1.97;1.30;;;25.30;96.80;;;;;;4972469;28;20575;-67
2022/06/21 08:44:48;;;;;;;1.67;1.40;;;25.50;97.20;;;;;;4973851;28;20818;-68
2022/06/21 08:47:58;;;;;;;2.50;1.43;;;25.70;96.60;;;;;;4972047;28;20495;-68
2022/06/21 08:50:49;;;;;;;4.23;1.30;;;25.20;99.90;;;;;;4972230;28;20458;-67
2022/06/21 08:53:29;;;;;;;3.87;1.53;;;24.90;96.40;;;;;;4973128;28;20461;-67
2022/06/21 08:56:02;;;;;;;1.10;1.07;;;25.30;96.50;;;;;;4972624;28;20550;-68
2022/06/21 08:58:43;;;;;;;2.10;1.33;;;25.30;95.10;;;;;;4971607;28;20823;-68
2022/06/21 09:01:18;;;;;;;2.43;2.20;;;25.50;95.30;;;;;;4967853;28;21010;-68
2022/06/21 09:04:00;;;;;;;1.20;1.20;;;25.50;94.90;;;;;;4971667;28;20466;-68
2022/06/21 09:06:40;;;;;;;1.57;1.23;;;25.20;94.20;;;;;;4971949;28;20474;-67
2022/06/21 09:09:37;;;;;;;2.00;1.33;;;25.00;95.30;;;;;;4973170;28;20462;-67
2022/06/21 09:12:16;;;;;;;5.60;1.30;;;25.20;95.40;;;;;;4972534;28;21001;-68
2022/06/21 09:15:12;;;;;;;3.43;1.30;;;25.30;95.80;;;;;;4972859;28;20463;-68
2022/06/21 09:17:46;;;;;;;3.20;1.17;;;24.90;95.30;;;;;;4965803;28;20469;-68
2022/06/21 09:20:26;;;;;;;1.40;1.30;;;24.80;94.90;;;;;;4971055;28;21024;-68
2022/06/21 09:23:05;;;;;;;2.43;1.50;;;24.80;95.30;;;;;;4966127;28;20573;-68
2022/06/21 09:25:43;;;;;;;1.37;1.27;;;24.20;95.60;;;;;;4970741;28;20525;-69
2022/06/21 09:28:22;;;;;;;3.80;1.20;;;23.90;96.90;;;;;;4972045;28;20471;-67
2022/06/21 09:30:56;;;;;;;1.60;1.20;;;24.10;96.90;;;;;;4965014;28;20782;-68
2022/06/21 09:33:32;;;;;;;2.00;1.20;;;24.70;96.50;;;;;;4971260;28;20458;-67
2022/06/21 09:36:05;;;;;;;1.80;1.70;;;24.30;95.90;;;;;;4972671;28;20811;-68
2022/06/21 09:38:41;;;;;;;1.17;1.17;;;24.20;95.50;;;;;;4968500;28;20467;-68
2022/06/21 09:41:16;;;;;;;1.73;1.30;;;23.80;96.10;;;;;;4971549;28;20494;-68
2022/06/21 09:43:54;;;;;;;1.30;1.17;;;23.90;96.30;;;;;;4971922;28;20474;-68
2022/06/21 09:46:28;;;;;;;4.50;1.53;;;23.90;96.00;;;;;;4971500;28;20506;-68
2022/06/21 09:49:03;;;;;;;2.43;1.43;;;23.90;96.20;;;;;;4972230;28;20474;-69
2022/06/21 09:51:37;;;;;;;2.63;1.27;;;23.90;95.30;;;;;;4971906;28;20487;-68
2022/06/21 09:54:16;;;;;;;3.37;1.20;;;23.70;94.90;;;;;;4970332;28;20945;-68
2022/06/21 09:56:50;;;;;;;1.27;1.17;;;23.60;95.20;;;;;;4963841;28;20473;-68
2022/06/21 09:59:24;;;;;;;1.37;1.10;;;23.60;94.80;;;;;;4967650;28;21009;-68
2022/06/21 10:02:01;;;;;;;2.13;1.77;;;23.80;95.90;;;;;;4966406;28;20513;-68
2022/06/21 10:04:33;;;;;;;3.90;1.50;;;23.40;99.90;;;;;;4971902;28;20465;-68
2022/06/21 10:07:09;;;;;;;3.20;1.50;;;23.50;95.90;;;;;;4971930;28;20467;-68
2022/06/21 10:10:01;;;;;;;1.30;1.20;;;22.80;99.90;;;;;;4971691;28;20460;-68
2022/06/21 10:12:41;;;;;;;1.67;1.60;;;22.90;99.90;;;;;;4971432;28;20594;-68
2022/06/21 10:15:30;;;;;;;3.43;2.00;;;23.10;99.90;;;;;;4970180;28;20471;-68
2022/06/21 10:18:35;;;;;;;1.53;1.43;;;23.20;96.90;;;;;;4965674;28;20505;-70
2022/06/21 10:21:17;;;;;;;1.60;1.50;;;23.40;96.70;;;;;;4930928;28;20504;-71
2022/06/21 10:23:59;;;;;;;4.30;1.50;;;23.30;99.90;;;;;;4971176;28;20808;-69
2022/06/21 10:26:56;;;;;;;4.43;2.13;;;23.20;96.30;;;;;;4971747;28;20991;-69
2022/06/21 10:29:54;;;;;;;1.50;1.27;;;23.40;99.90;;;;;;4972086;28;20462;-70
2022/06/21 10:32:33;;;;;;;4.23;1.70;;;23.50;97.30;;;;;;4971418;28;20503;-69
2022/06/21 10:35:34;;;;;;;3.03;1.43;;;24.40;97.00;;;;;;4970962;28;20459;-69
2022/06/21 10:38:16;;;;;;;1.60;1.50;;;23.30;99.90;;;;;;4969332;28;20531;-70
2022/06/21 10:40:54;;;;;;;1.83;1.67;;;23.30;96.80;;;;;;4970296;28;20492;-71
2022/06/21 10:43:40;;;;;;;2.33;1.30;;;23.00;99.90;;;;;;4970427;28;20463;-70
2022/06/21 10:46:11;;;;;;;1.47;1.40;;;23.00;97.20;;;;;;4972153;28;20462;-69
2022/06/21 10:49:01;;;;;;;1.70;1.60;;;23.10;99.90;;;;;;4971689;28;20467;-69
2022/06/21 10:51:53;;;;;;;1.60;1.53;;;22.70;96.60;;;;;;4963830;28;20479;-70
2022/06/21 10:54:41;;;;;;;4.67;1.60;;;23.00;99.90;;;;;;4972385;28;20570;-71
2022/06/21 10:57:15;;;;;;;3.13;1.80;;;23.10;99.90;;;;;;4972067;28;20504;-70
2022/06/21 11:03:25;;;;;;;4.53;1.80;;;22.70;97.70;;;;;;4974610;28;20537;-71
2022/06/21 11:06:16;;;;;;;3.97;1.80;;;22.30;99.90;;;;;;4974849;28;20475;-70
2022/06/21 11:08:52;;;;;;;2.70;1.50;;;22.50;98.30;;;;;;4974412;28;20571;-69
2022/06/21 11:11:25;;;;;;;2.27;1.57;;;22.70;98.00;;;;;;4973836;28;20480;-69
2022/06/21 11:14:03;;;;;;;2.00;1.30;;;22.80;99.90;;;;;;4974911;28;20460;-70
2022/06/21 11:16:36;;;;;;;2.97;1.50;;;22.60;99.90;;;;;;4972911;28;20527;-70
2022/06/21 11:19:12;;;;;;;3.47;1.73;;;22.40;99.90;;;;;;4968539;28;20491;-69
2022/06/21 11:21:53;;;;;;;2.00;1.90;;;22.60;97.50;;;;;;4968370;28;20491;-70
2022/06/21 11:24:29;;;;;;;3.63;1.70;;;22.70;96.90;;;;;;4974453;28;20467;-70
2022/06/21 11:27:07;;;;;;;2.10;1.87;;;22.70;96.90;;;;;;4974142;28;20806;-70
2022/06/21 11:29:40;;;;;;;1.70;1.60;;;22.60;96.40;;;;;;4974967;28;20657;-71
2022/06/21 11:32:18;;;;;;;2.27;1.43;;;22.80;96.60;;;;;;4972824;28;20574;-69
2022/06/21 11:34:54;;;;;;;5.63;2.03;;;23.00;96.90;;;;;;4967084;28;20452;-69
2022/06/21 11:37:37;;;;;;;3.60;1.63;;;23.00;96.20;;;;;;4974288;28;20471;-69
2022/06/21 11:40:18;;;;;;;1.63;1.63;;;22.60;99.90;;;;;;4974192;28;20483;-69
2022/06/21 11:42:51;;;;;;;2.20;1.77;;;22.90;96.60;;;;;;4966381;28;20467;-70
2022/06/21 11:45:40;;;;;;;1.37;1.37;;;23.50;99.90;;;;;;4974569;28;20460;-70
2022/06/21 11:48:33;;;;;;;2.33;1.50;;;23.30;95.90;;;;;;4957358;28;21017;-70
2022/06/21 11:51:20;;;;;;;2.93;1.10;;;23.50;94.80;;;;;;4971880;28;20491;-70
2022/06/21 11:53:57;;;;;;;1.60;1.53;;;23.70;94.10;;;;;;4955400;29;20544;-70
2022/06/21 11:56:30;;;;;;;1.40;1.30;;;23.70;98.40;;;;;;4963151;28;20483;-69
2022/06/21 11:59:03;;;;;;;1.13;1.13;;;24.10;98.10;;;;;;4974052;28;20471;-70
2022/06/21 12:01:36;;;;;;;1.33;1.23;;;24.10;97.20;;;;;;4973327;28;20556;-69
2022/06/21 12:04:19;;;;;;;1.30;1.30;;;24.30;99.40;;;;;;4972125;28;20478;-69
2022/06/21 12:06:56;;;;;;;2.57;1.20;;;24.20;93.00;;;;;;4972387;28;20473;-70
2022/06/21 12:09:34;;;;;;;1.40;1.13;;;24.20;92.60;;;;;;4974918;28;20489;-70
2022/06/21 12:12:21;;;;;;;1.20;1.07;;;24.20;91.90;;;;;;4969324;28;20524;-69
2022/06/21 12:15:00;;;;;;;1.73;1.10;;;24.40;92.00;;;;;;4973313;28;20493;-69
2022/06/21 12:17:41;;;;;;;1.20;1.20;;;24.20;91.40;;;;;;4965708;28;20480;-70
2022/06/21 12:20:16;;;;;;;1.63;1.20;;;24.20;91.80;;;;;;4968881;28;21053;-67
2022/06/21 12:22:48;;;;;;;1.80;1.50;;;24.40;92.50;;;;;;4970598;28;20810;-68
2022/06/21 12:25:18;;;;;;;0.97;0.97;;;24.30;93.50;;;;;;4973538;28;20466;-69
2022/06/21 12:27:45;;;;;;;1.90;1.43;;;24.10;93.00;;;;;;4965797;28;20646;-69
2022/06/21 12:30:19;;;;;;;1.73;1.73;;;24.10;93.20;;;;;;4968343;28;20473;-69
2022/06/21 12:32:48;;;;;;;1.50;1.50;;;24.10;93.00;;;;;;4971901;28;20562;-69
2022/06/21 12:35:17;;;;;;;1.50;1.00;;;24.20;93.20;;;;;;4973130;28;20566;-69
2022/06/21 12:37:48;;;;;;;1.47;1.47;;;24.30;92.10;;;;;;4973864;28;20463;-70
2022/06/21 12:40:24;;;;;;;2.53;1.30;;;25.10;97.20;;;;;;4967562;28;20845;-68
2022/06/21 12:43:12;;;;;;;1.40;1.30;;;24.50;94.20;;;;;;4971676;28;20455;-70
2022/06/21 12:45:50;;;;;;;3.90;1.47;;;24.50;90.90;;;;;;4971782;28;20487;-69
2022/06/21 12:48:44;;;;;;;1.17;1.10;;;24.40;91.40;;;;;;4965176;28;20469;-70
2022/06/21 12:51:17;;;;;;;1.57;1.47;;;24.30;96.80;;;;;;4970291;28;20496;-69
2022/06/21 12:54:32;;;;;;;1.07;1.07;;;24.70;95.90;;;;;;4969529;28;20467;-70
2022/06/21 12:57:33;;;;;;;1.33;1.23;;;24.70;91.00;;;;;;4967057;28;20522;-69
2022/06/21 13:00:11;;;;;;;1.57;1.47;;;25.00;93.20;;;;;;4963071;28;20810;-70
2022/06/21 13:02:58;;;;;;;1.37;1.27;;;24.40;98.00;;;;;;4969123;28;20546;-72
2022/06/21 13:05:45;;;;;;;1.40;1.23;;;24.60;92.70;;;;;;4970684;28;20460;-71
2022/06/21 13:08:36;;;;;;;3.57;1.67;;;24.50;92.60;;;;;;4967366;28;20482;-69
2022/06/21 13:11:20;;;;;;;1.50;1.47;;;24.50;92.90;;;;;;4970131;28;20476;-71
2022/06/21 13:14:01;;;;;;;1.30;1.30;;;24.40;92.30;;;;;;4966262;28;20471;-71
2022/06/21 13:16:40;;;;;;;1.97;1.40;;;24.40;91.20;;;;;;4971326;28;20460;-72
2022/06/21 13:19:40;;;;;;;1.60;1.03;;;24.50;97.60;;;;;;4972517;28;20460;-72
2022/06/21 13:22:21;;;;;;;2.03;1.43;;;24.30;91.80;;;;;;4972753;28;20495;-71
2022/06/21 13:25:04;;;;;;;2.83;1.73;;;24.40;92.00;;;;;;4970254;28;20459;-71
2022/06/21 13:27:45;;;;;;;1.63;1.53;;;24.30;91.80;;;;;;4971979;28;20448;-72
2022/06/21 13:30:25;;;;;;;3.10;1.27;;;24.30;90.80;;;;;;4972464;28;20490;-68
2022/06/21 13:32:55;;;;;;;0.90;0.90;;;24.40;89.90;;;;;;4972747;28;20452;-70
2022/06/21 13:35:27;;;;;;;1.60;1.10;;;24.50;90.00;;;;;;4972709;28;20476;-71
2022/06/21 13:37:59;;;;;;;1.30;1.30;;;24.50;88.50;;;;;;4972843;28;20451;-70
2022/06/21 13:40:31;;;;;;;1.10;1.10;;;24.70;91.70;;;;;;4970259;28;20491;-70
2022/06/21 13:43:08;;;;;;;3.30;1.50;;;24.70;90.80;;;;;;4968449;28;20470;-70
2022/06/21 13:45:44;;;;;;;1.63;1.53;;;24.80;91.20;;;;;;4969894;28;20468;-70
2022/06/21 13:48:20;;;;;;;1.53;1.43;;;24.90;90.90;;;;;;4969071;28;20468;-69
2022/06/21 13:50:52;;;;;;;1.40;1.20;;;25.10;90.20;;;;;;4967353;28;20487;-71
2022/06/21 13:53:24;;;;;;;2.40;2.30;;;25.20;90.20;;;;;;4972843;28;20779;-68
2022/06/21 13:55:55;;;;;;;1.40;1.30;;;25.00;88.40;;;;;;4971727;28;20915;-70
2022/06/21 13:58:34;;;;;;;1.20;1.20;;;24.80;90.20;;;;;;4971704;28;20474;-71
2022/06/21 14:01:15;;;;;;;1.77;1.50;;;24.70;90.50;;;;;;4968547;28;20492;-70
2022/06/21 14:03:53;;;;;;;2.53;1.70;;;24.80;91.20;;;;;;4972075;28;20470;-70
2022/06/21 14:06:27;;;;;;;4.20;1.70;;;24.90;91.50;;;;;;4972225;28;20463;-70
2022/06/21 14:09:02;;;;;;;1.50;1.50;;;25.00;92.00;;;;;;4972046;28;20459;-71
2022/06/21 14:11:35;;;;;;;1.63;1.40;;;25.10;91.20;;;;;;4970639;28;21002;-68
2022/06/21 14:14:19;;;;;;;1.60;1.50;;;25.30;91.20;;;;;;4971742;28;20515;-70
2022/06/21 14:16:50;;;;;;;2.10;1.57;;;25.10;96.20;;;;;;4971251;28;20456;-68
2022/06/21 14:19:27;;;;;;;1.50;1.47;;;25.30;90.60;;;;;;4966485;28;20568;-68
2022/06/21 14:21:59;;;;;;;1.40;1.40;;;25.30;90.50;;;;;;4965320;28;20495;-69
2022/06/21 14:24:35;;;;;;;2.40;1.50;;;25.10;89.90;;;;;;4968781;28;20559;-69
2022/06/21 14:27:10;;;;;;;1.87;1.63;;;25.10;91.00;;;;;;4972921;28;20463;-70
2022/06/21 14:29:45;;;;;;;1.70;1.60;;;25.20;90.60;;;;;;4976192;28;20463;-70
2022/06/21 14:32:18;;;;;;;1.20;1.10;;;25.30;91.20;;;;;;4975816;28;20490;-68
2022/06/21 14:34:52;;;;;;;1.97;1.80;;;25.10;90.60;;;;;;4973987;28;20476;-69
2022/06/21 14:37:35;;;;;;;1.43;1.33;;;25.20;90.00;;;;;;4974409;28;20455;-69
2022/06/21 14:40:10;;;;;;;2.57;1.60;;;25.20;90.60;;;;;;4974986;28;20482;-68
2022/06/21 14:42:45;;;;;;;1.60;1.57;;;25.40;90.10;;;;;;4974214;28;20487;-70
2022/06/21 14:45:20;;;;;;;1.47;1.47;;;25.40;90.00;;;;;;4976158;28;20828;-71
2022/06/21 14:47:52;;;;;;;4.90;1.50;;;25.40;89.10;;;;;;4974605;28;20627;-70
2022/06/21 14:50:27;;;;;;;3.37;1.50;;;25.40;89.20;;;;;;4975181;28;20979;-70
2022/06/21 14:53:18;;;;;;;1.63;1.53;;;25.50;87.90;;;;;;4974620;28;20462;-69
2022/06/21 14:56:00;;;;;;;1.70;1.60;;;25.50;87.90;;;;;;4974101;28;20454;-69
2022/06/21 14:58:50;;;;;;;1.40;1.40;;;25.50;88.70;;;;;;4972941;28;20456;-70
2022/06/21 15:01:34;;;;;;;3.30;1.70;;;25.60;87.30;;;;;;4974283;28;20487;-70
2022/06/21 15:04:08;;;;;;;1.70;1.60;;;25.80;88.20;;;;;;4975721;28;20460;-69
2022/06/21 15:06:39;;;;;;;1.47;1.37;;;25.70;86.40;;;;;;4975059;28;20466;-71
2022/06/21 15:09:13;;;;;;;2.60;1.50;;;25.60;87.00;;;;;;4974528;28;20611;-70
2022/06/21 15:11:56;;;;;;;1.43;1.43;;;25.70;87.70;;;;;;4965824;28;20495;-70
2022/06/21 15:14:26;;;;;;;1.60;1.27;;;25.90;92.90;;;;;;4975463;28;20526;-69
2022/06/21 15:17:03;;;;;;;2.53;1.27;;;25.80;86.80;;;;;;4963212;28;20467;-70
2022/06/21 15:19:57;;;;;;;2.90;1.83;;;26.00;89.90;;;;;;4975244;28;20470;-69
2022/06/21 15:22:37;;;;;;;2.87;1.20;;;25.90;84.80;;;;;;4975615;28;20491;-69
2022/06/21 15:25:16;;;;;;;1.53;1.40;;;25.90;85.30;;;;;;4974995;28;20455;-69
2022/06/21 15:27:49;;;;;;;2.00;1.60;;;26.00;85.80;;;;;;4971586;28;20468;-69
2022/06/21 15:30:18;;;;;;;3.37;1.70;;;25.70;84.20;;;;;;4970979;28;20471;-72
2022/06/21 15:32:51;;;;;;;1.93;1.80;;;25.80;84.80;;;;;;4975991;28;20471;-70
2022/06/21 15:35:18;;;;;;;1.67;1.57;;;25.80;85.40;;;;;;4976039;28;20459;-70
2022/06/21 15:37:53;;;;;;;2.10;1.40;;;25.60;86.10;;;;;;4974839;28;20464;-69
2022/06/21 15:40:24;;;;;;;1.67;1.57;;;25.30;85.80;;;;;;4970717;28;20466;-69
2022/06/21 15:42:59;;;;;;;1.50;1.40;;;25.40;86.70;;;;;;4974302;28;20492;-71
2022/06/21 15:45:31;;;;;;;1.30;1.10;;;25.20;85.10;;;;;;4973785;28;20566;-71
2022/06/21 15:51:03;;;;;;;3.03;2.30;;;25.30;86.00;;;;;;4962909;28;20478;-70
2022/06/21 15:53:46;;;;;;;1.20;1.20;;;25.30;86.00;;;;;;4967553;28;20456;-68
2022/06/21 15:56:21;;;;;;;1.70;1.30;;;25.50;85.80;;;;;;4971878;28;20474;-71
2022/06/21 15:59:11;;;;;;;1.43;1.43;;;25.60;86.20;;;;;;4973514;28;20463;-70
2022/06/21 16:01:46;;;;;;;2.30;1.40;;;25.70;85.30;;;;;;4972271;28;20502;-70
2022/06/21 16:04:24;;;;;;;1.27;1.27;;;25.50;84.40;;;;;;4974219;28;20451;-70
2022/06/21 16:06:54;;;;;;;1.97;1.90;;;25.70;87.00;;;;;;4973655;28;20463;-69
2022/06/21 16:09:25;;;;;;;2.03;1.93;;;25.90;87.30;;;;;;4955604;28;20449;-70
2022/06/21 16:11:56;;;;;;;1.57;1.47;;;26.00;86.50;;;;;;4973462;28;20487;-70
2022/06/21 16:14:26;;;;;;;2.63;1.70;;;26.00;87.30;;;;;;4965997;28;20464;-70
2022/06/21 16:17:04;;;;;;;1.87;1.87;;;26.00;86.10;;;;;;4970556;28;20472;-70
2022/06/21 16:19:32;;;;;;;1.90;1.17;;;26.00;86.20;;;;;;4973938;28;20456;-66
2022/06/21 16:22:01;;;;;;;1.73;1.63;;;26.00;84.80;;;;;;4972871;28;20494;-69
2022/06/21 16:24:36;;;;;;;1.50;1.33;;;25.90;85.10;;;;;;4973913;28;20463;-70
2022/06/21 16:27:08;;;;;;;1.60;1.50;;;25.70;85.20;;;;;;4954452;28;20480;-68
2022/06/21 16:29:39;;;;;;;1.10;1.10;;;25.50;85.70;;;;;;4972373;28;20551;-67
2022/06/21 16:35:01;;;;;;;2.57;2.47;;;25.10;86.10;;;;;;4955043;29;20940;-70
2022/06/21 16:37:30;;;;;;;3.43;3.13;;;25.00;86.80;;;;;;4956231;28;20465;-69
2022/06/21 16:40:02;;;;;;;2.13;1.70;;;24.90;87.70;;;;;;4973123;28;20468;-70
2022/06/21 16:45:37;;;;;;;5.50;1.50;;;25.10;88.40;;;;;;4949090;29;20572;-70
2022/06/21 16:48:08;;;;;;;1.77;1.63;;;25.00;87.80;;;;;;4964602;28;20475;-70
2022/06/21 16:50:53;;;;;;;1.33;1.23;;;25.10;88.40;;;;;;4971356;28;20452;-69
2022/06/21 16:53:23;;;;;;;2.07;1.97;;;25.10;88.30;;;;;;4972767;28;20464;-73
2022/06/21 16:55:55;;;;;;;1.37;1.37;;;25.10;89.40;;;;;;4973519;28;20800;-70
2022/06/21 16:58:23;;;;;;;2.63;1.40;;;25.20;88.90;;;;;;4972208;28;20462;-70
2022/06/21 17:00:56;;;;;;;1.33;1.27;;;25.20;89.00;;;;;;4969533;28;20816;-71
2022/06/21 17:03:36;;;;;;;3.27;1.47;;;25.20;88.40;;;;;;4968385;28;20471;-71
2022/06/21 17:06:04;;;;;;;2.00;1.47;;;25.20;87.80;;;;;;4972832;28;20502;-71
2022/06/21 17:08:31;;;;;;;2.30;1.63;;;25.10;87.60;;;;;;4966176;28;20461;-68
2022/06/21 17:13:46;;;;;;;2.00;1.87;;;24.90;89.00;;;;;;4972296;28;20955;-70
2022/06/21 17:16:24;;;;;;;1.73;1.60;;;25.00;88.40;;;;;;4972488;28;20464;-70
2022/06/21 17:19:00;;;;;;;1.60;1.60;;;25.00;88.60;;;;;;4971762;28;20494;-70
2022/06/21 17:21:35;;;;;;;1.53;1.53;;;25.00;89.10;;;;;;4971221;28;20483;-71
2022/06/21 17:24:15;;;;;;;2.77;1.87;;;25.00;89.80;;;;;;4972113;28;20459;-71
2022/06/21 17:26:52;;;;;;;2.40;2.20;;;25.00;90.40;;;;;;4972318;28;20475;-71
2022/06/21 17:29:30;;;;;;;1.70;1.67;;;24.90;90.00;;;;;;4972056;28;20463;-70
2022/06/21 17:31:58;;;;;;;1.60;1.60;;;24.60;90.20;;;;;;4971117;28;20988;-72
2022/06/21 17:34:27;;;;;;;1.60;1.50;;;24.60;90.40;;;;;;4967854;28;20468;-69
2022/06/21 17:37:14;;;;;;;2.13;2.00;;;24.60;90.70;;;;;;4972310;28;20462;-69
2022/06/21 17:39:49;;;;;;;1.77;1.60;;;24.70;90.60;;;;;;4972425;28;20444;-69
2022/06/21 17:42:25;;;;;;;1.53;1.30;;;24.70;90.90;;;;;;4967662;28;20595;-69
2022/06/21 17:44:56;;;;;;;1.87;1.77;;;24.70;90.10;;;;;;4965356;28;20809;-72
2022/06/21 17:47:27;;;;;;;3.00;2.00;;;24.80;90.00;;;;;;4971751;28;20827;-70
2022/06/21 17:49:58;;;;;;;2.10;1.97;;;24.70;90.20;;;;;;4970720;28;20510;-70
2022/06/21 17:52:31;;;;;;;2.00;1.90;;;24.80;90.70;;;;;;4965816;28;20494;-69